Tot'Ma, Russia
Current Conditions -  °F | °C
As of 4:30 PM on Sunday 23 Nov 2014 (Local Time) from ULWC Reporting Station
Haze Haze  
Wind Chill: 19°   Ceiling: 200
Heat Index: 27°   Visibility: 3mi
Dew Point: 27°   Wind: 7mph
Humidity: 100%   Direction: 140°SE
Pressure: 30.53"   Gusts: NA
Location:  59.88°N, 42.75°E
Report Text: ULWC 231330Z 14003MPS 5000 BR OVC002 M03/M03 Q1034 TEMPO 2000BR BKN002 RMK QBB060 QFE765/1021 SC057
Loading
Personal Weather Stations






























Interactive Weather Map New forecast layout! Learn more

10-Day Weather Forecast

Advertisements
Track Severe Weather on mobile